Time;durP1;ratioP1;P1;durP2;ratioP2;P2;SDS_P1;SDS_P2;PMS_P1;PMS_P2;Temp;Humidity;BMP_temperature;BMP_pressure;BME280_temperature;BME280_humidity;BME280_pressure;Samples;Min_cycle;Max_cycle;Signal;HPM_P1;HPM_P2
2023/02/02 00:00:44;;;;;;;14.10;3.80;;;6.10;99.90;;;;;;5072131;28;20917;-49
2023/02/02 00:03:12;;;;;;;8.80;3.40;;;5.90;99.90;;;;;;5071818;28;20405;-49
2023/02/02 00:05:44;;;;;;;17.40;4.30;;;5.90;99.90;;;;;;5071744;28;20454;-48
2023/02/02 00:08:10;;;;;;;11.47;3.47;;;6.20;99.90;;;;;;5071508;28;20412;-48
2023/02/02 00:10:37;;;;;;;17.83;4.10;;;6.20;99.90;;;;;;5071747;28;20443;-49
2023/02/02 00:13:03;;;;;;;13.97;3.77;;;6.10;99.90;;;;;;5073989;28;20755;-49
2023/02/02 00:15:30;;;;;;;17.73;3.60;;;5.50;99.90;;;;;;5075688;28;20450;-49
2023/02/02 00:17:57;;;;;;;14.60;4.77;;;6.40;99.90;;;;;;5075836;28;20436;-49
2023/02/02 00:20:25;;;;;;;17.27;4.00;;;6.30;99.90;;;;;;5075577;28;20431;-49
2023/02/02 00:22:51;;;;;;;16.63;3.80;;;6.10;99.90;;;;;;5076115;28;20410;-47
2023/02/02 00:25:18;;;;;;;14.00;4.37;;;5.60;99.90;;;;;;5076177;28;20466;-49
2023/02/02 00:27:44;;;;;;;15.03;5.20;;;6.20;99.90;;;;;;5075764;28;20461;-49
2023/02/02 00:30:12;;;;;;;16.07;4.03;;;6.30;99.90;;;;;;5075248;28;20935;-49
2023/02/02 00:32:40;;;;;;;16.30;3.63;;;6.40;99.90;;;;;;5075555;28;20437;-49
2023/02/02 00:35:08;;;;;;;19.43;3.53;;;6.50;99.90;;;;;;5057506;28;20433;-48
2023/02/02 00:37:36;;;;;;;13.93;3.93;;;6.40;99.90;;;;;;5075693;28;20423;-49
2023/02/02 00:40:03;;;;;;;18.40;3.90;;;6.20;99.90;;;;;;5075247;28;20413;-49
2023/02/02 00:42:30;;;;;;;18.13;3.93;;;6.30;99.90;;;;;;5057853;28;20424;-49
2023/02/02 00:47:41;;;;;;;14.97;3.43;;;6.80;99.90;;;;;;5075563;28;20905;-49
2023/02/02 00:50:09;;;;;;;16.00;3.70;;;6.30;99.90;;;;;;5074907;28;20417;-49
2023/02/02 00:52:37;;;;;;;11.70;3.33;;;6.20;99.90;;;;;;5075109;28;20434;-49
2023/02/02 00:55:05;;;;;;;17.87;3.83;;;6.40;99.90;;;;;;5075137;28;20468;-49
2023/02/02 00:57:31;;;;;;;20.60;4.20;;;6.30;99.90;;;;;;5057230;28;20989;-49
2023/02/02 00:59:58;;;;;;;21.67;3.67;;;5.80;99.90;;;;;;5074785;28;20404;-50
2023/02/02 01:02:25;;;;;;;15.87;3.47;;;6.50;99.90;;;;;;5074929;28;20857;-49
2023/02/02 01:04:51;;;;;;;13.87;3.67;;;6.30;99.90;;;;;;5057040;28;20442;-49
2023/02/02 01:07:18;;;;;;;17.23;4.17;;;6.50;99.90;;;;;;5074963;28;20432;-48
2023/02/02 01:09:46;;;;;;;22.20;5.10;;;6.30;99.90;;;;;;5074498;28;20450;-49
2023/02/02 01:12:13;;;;;;;11.77;4.77;;;5.90;99.90;;;;;;5056888;28;20819;-48
2023/02/02 01:14:39;;;;;;;15.70;3.63;;;6.30;99.90;;;;;;5074813;28;20463;-48
2023/02/02 01:17:06;;;;;;;17.03;3.80;;;6.50;99.90;;;;;;5074684;28;20474;-48
2023/02/02 01:19:33;;;;;;;23.13;4.43;;;6.50;99.90;;;;;;5074427;28;20407;-49
2023/02/02 01:21:59;;;;;;;9.23;2.97;;;6.50;99.90;;;;;;5074817;28;20505;-48
2023/02/02 01:24:26;;;;;;;8.30;2.73;;;6.40;99.90;;;;;;5074495;28;20447;-48
2023/02/02 01:26:54;;;;;;;11.47;3.80;;;6.50;99.90;;;;;;5074839;28;20402;-48
2023/02/02 01:29:21;;;;;;;15.93;4.00;;;6.60;99.90;;;;;;5056328;28;20961;-49
2023/02/02 01:31:48;;;;;;;19.03;3.80;;;6.30;99.90;;;;;;5074485;28;20433;-48
2023/02/02 01:34:14;;;;;;;13.93;3.43;;;6.40;99.90;;;;;;5074867;28;20462;-49
2023/02/02 01:36:41;;;;;;;14.43;3.60;;;6.30;99.90;;;;;;5056650;28;20461;-50
2023/02/02 01:39:08;;;;;;;24.53;3.33;;;6.60;99.90;;;;;;5075149;28;20875;-48
2023/02/02 01:41:34;;;;;;;13.23;3.27;;;6.20;99.90;;;;;;5074674;28;20414;-49
2023/02/02 01:44:05;;;;;;;13.40;3.63;;;6.10;99.90;;;;;;5056440;28;20753;-48
2023/02/02 01:46:33;;;;;;;15.93;3.53;;;6.10;99.90;;;;;;5074423;28;20440;-49
2023/02/02 01:49:04;;;;;;;10.47;3.93;;;6.50;99.90;;;;;;5073853;28;20406;-48
2023/02/02 01:51:38;;;;;;;11.63;4.13;;;5.80;99.90;;;;;;5056424;28;20426;-48
2023/02/02 01:54:08;;;;;;;10.47;2.80;;;6.50;99.90;;;;;;5056933;28;20446;-50
2023/02/02 01:56:41;;;;;;;13.33;4.20;;;6.50;99.90;;;;;;5056672;28;20469;-50
2023/02/02 01:59:11;;;;;;;18.80;4.27;;;6.40;99.90;;;;;;5056252;28;20971;-49
2023/02/02 02:01:38;;;;;;;15.23;3.33;;;6.30;99.90;;;;;;5074686;28;20456;-49
2023/02/02 02:04:05;;;;;;;10.57;3.20;;;6.50;99.90;;;;;;5074272;28;20406;-50
2023/02/02 02:06:33;;;;;;;22.43;4.07;;;6.60;99.90;;;;;;5056102;28;20458;-49
2023/02/02 02:09:03;;;;;;;17.33;3.30;;;6.40;99.90;;;;;;5073988;28;20495;-49
2023/02/02 02:11:30;;;;;;;20.20;3.40;;;6.30;99.90;;;;;;5074052;28;20957;-49
2023/02/02 02:16:57;;;;;;;11.80;3.00;;;6.30;99.90;;;;;;5055811;28;20562;-50
2023/02/02 02:29:08;;;;;;;15.50;3.53;;;6.40;99.90;;;;;;5056974;28;20453;-48
2023/02/02 02:31:51;;;;;;;10.37;3.50;;;6.50;99.90;;;;;;5055597;28;20854;-49
2023/02/02 02:34:25;;;;;;;17.80;3.57;;;6.40;99.90;;;;;;5055425;28;20448;-49
2023/02/02 02:37:01;;;;;;;17.47;3.90;;;6.50;99.90;;;;;;5055044;28;20535;-50
2023/02/02 02:39:34;;;;;;;16.57;3.33;;;6.50;99.90;;;;;;5055194;28;20500;-49
2023/02/02 02:42:07;;;;;;;15.47;3.00;;;6.70;99.90;;;;;;5073557;28;20463;-49
2023/02/02 02:44:36;;;;;;;13.37;3.70;;;6.60;99.90;;;;;;5055174;28;20455;-50
2023/02/02 02:47:04;;;;;;;17.60;3.70;;;6.80;99.90;;;;;;5055146;28;20419;-49
2023/02/02 02:49:31;;;;;;;18.30;3.63;;;6.40;99.90;;;;;;5055245;28;20455;-49
2023/02/02 02:51:57;;;;;;;14.57;3.93;;;6.30;99.90;;;;;;5055148;28;20451;-48
2023/02/02 02:54:32;;;;;;;13.73;3.33;;;6.50;99.90;;;;;;5054956;28;20893;-49
2023/02/02 02:57:17;;;;;;;18.30;4.10;;;6.40;99.90;;;;;;5054995;28;20454;-48
2023/02/02 02:59:52;;;;;;;14.50;3.30;;;6.50;99.90;;;;;;5072561;28;20406;-48
2023/02/02 03:02:34;;;;;;;16.33;3.40;;;6.70;99.90;;;;;;5072873;28;20491;-49
2023/02/02 03:05:14;;;;;;;12.50;4.00;;;6.60;99.90;;;;;;5072861;28;20482;-50
2023/02/02 03:07:44;;;;;;;14.63;3.50;;;6.40;99.90;;;;;;5072751;28;20436;-49
2023/02/02 03:10:14;;;;;;;11.37;2.90;;;6.40;99.90;;;;;;5072903;28;20910;-49
2023/02/02 03:12:45;;;;;;;15.93;3.23;;;6.80;99.90;;;;;;5072664;28;20918;-48
2023/02/02 03:15:12;;;;;;;14.43;3.20;;;6.50;99.90;;;;;;5072635;28;20449;-49
2023/02/02 03:17:42;;;;;;;12.30;2.90;;;6.80;99.90;;;;;;5072543;28;20479;-49
2023/02/02 03:20:27;;;;;;;13.83;4.00;;;6.60;99.90;;;;;;5072171;28;20418;-49
2023/02/02 03:22:54;;;;;;;8.77;2.60;;;6.90;99.90;;;;;;5072487;28;20417;-48
2023/02/02 03:25:22;;;;;;;23.93;3.97;;;6.70;99.90;;;;;;5054440;28;20510;-49
2023/02/02 03:27:49;;;;;;;18.67;4.10;;;6.70;99.90;;;;;;5072368;28;20410;-50
2023/02/02 03:30:17;;;;;;;8.03;2.90;;;6.50;99.90;;;;;;5071982;28;20871;-49
2023/02/02 03:32:46;;;;;;;14.30;2.90;;;6.70;99.90;;;;;;5072375;28;20952;-48
2023/02/02 03:35:12;;;;;;;11.30;3.90;;;6.70;99.90;;;;;;5072101;28;20451;-49
2023/02/02 03:37:39;;;;;;;10.83;2.73;;;6.40;99.90;;;;;;5072200;28;20461;-49
2023/02/02 03:40:07;;;;;;;12.40;3.23;;;6.40;99.90;;;;;;5071831;28;20427;-49
2023/02/02 03:42:33;;;;;;;13.17;3.10;;;6.60;99.90;;;;;;5072117;28;20432;-48
2023/02/02 03:45:00;;;;;;;10.87;2.90;;;6.60;99.90;;;;;;5071958;28;20978;-49
2023/02/02 03:47:28;;;;;;;14.30;2.77;;;6.50;99.90;;;;;;5071431;28;20418;-49
2023/02/02 03:49:56;;;;;;;11.70;2.63;;;6.50;99.90;;;;;;5071856;28;20416;-48
2023/02/02 03:52:23;;;;;;;7.50;2.40;;;6.80;99.90;;;;;;5072327;28;20654;-48
2023/02/02 03:54:50;;;;;;;15.80;2.90;;;6.80;99.90;;;;;;5072116;28;20430;-48
2023/02/02 03:57:16;;;;;;;11.17;2.90;;;6.80;99.90;;;;;;5072143;28;20941;-48
2023/02/02 03:59:43;;;;;;;14.43;3.40;;;6.70;99.90;;;;;;5071719;28;20407;-48
2023/02/02 04:02:10;;;;;;;11.03;3.30;;;6.70;99.90;;;;;;5071931;28;20436;-51
2023/02/02 04:04:36;;;;;;;10.10;2.67;;;6.40;99.90;;;;;;5071936;28;20459;-48
2023/02/02 04:07:05;;;;;;;11.30;2.20;;;6.60;99.90;;;;;;5071942;28;20413;-48
2023/02/02 04:09:32;;;;;;;8.93;3.77;;;6.90;99.90;;;;;;5071930;28;20428;-48
2023/02/02 04:11:59;;;;;;;9.37;2.67;;;6.50;99.90;;;;;;5054292;28;20434;-48
2023/02/02 04:14:25;;;;;;;9.40;2.43;;;6.70;99.90;;;;;;5071646;28;20437;-48
2023/02/02 04:16:52;;;;;;;12.57;3.13;;;6.20;99.90;;;;;;5071663;28;20497;-48
2023/02/02 04:19:18;;;;;;;15.97;2.97;;;6.70;99.90;;;;;;5071363;28;20413;-48
2023/02/02 04:21:45;;;;;;;10.50;2.57;;;6.40;99.90;;;;;;5071681;28;20443;-48
2023/02/02 04:24:14;;;;;;;11.07;2.50;;;6.60;99.90;;;;;;5071590;28;20720;-49
2023/02/02 04:26:41;;;;;;;12.00;2.73;;;6.80;99.90;;;;;;5071760;28;20899;-48
2023/02/02 04:29:08;;;;;;;10.77;2.50;;;6.60;99.90;;;;;;5071222;28;20405;-49
2023/02/02 04:31:35;;;;;;;10.00;2.33;;;6.60;99.90;;;;;;5071712;28;20436;-48
2023/02/02 04:34:02;;;;;;;7.73;2.80;;;7.10;99.90;;;;;;5071536;28;20415;-48
2023/02/02 04:36:29;;;;;;;10.73;2.53;;;6.80;99.90;;;;;;5071572;28;20439;-48
2023/02/02 04:38:55;;;;;;;12.53;3.27;;;6.70;99.90;;;;;;5053178;28;20458;-48
2023/02/02 04:41:24;;;;;;;8.63;2.20;;;6.60;99.90;;;;;;5071496;28;20467;-48
2023/02/02 04:43:51;;;;;;;8.83;2.50;;;6.60;99.90;;;;;;5071070;28;20470;-48
2023/02/02 04:46:17;;;;;;;9.90;2.70;;;6.60;99.90;;;;;;5071635;28;20405;-48
2023/02/02 04:48:44;;;;;;;9.00;2.40;;;6.90;99.90;;;;;;5071063;28;21033;-48
2023/02/02 04:51:12;;;;;;;14.00;3.20;;;6.80;99.90;;;;;;5071476;28;20453;-47
2023/02/02 04:53:40;;;;;;;12.07;2.83;;;6.60;99.90;;;;;;5071339;28;20432;-49
2023/02/02 04:56:08;;;;;;;11.20;3.17;;;6.70;99.90;;;;;;5071301;28;20899;-49
2023/02/02 04:58:36;;;;;;;9.47;3.40;;;6.60;99.90;;;;;;5072142;28;20955;-49
2023/02/02 05:01:09;;;;;;;13.60;2.53;;;6.70;99.90;;;;;;5075073;28;20397;-49
2023/02/02 05:03:35;;;;;;;6.57;2.80;;;6.80;99.90;;;;;;5074951;28;20784;-49
2023/02/02 05:06:03;;;;;;;15.00;2.80;;;6.10;99.90;;;;;;5075131;28;20428;-49
2023/02/02 05:08:30;;;;;;;10.10;2.43;;;6.50;99.90;;;;;;5074942;28;20439;-49
2023/02/02 05:10:56;;;;;;;11.53;2.60;;;6.70;99.90;;;;;;5075277;28;20498;-49
2023/02/02 05:13:23;;;;;;;14.27;2.60;;;7.10;99.90;;;;;;5074771;28;20444;-48
2023/02/02 05:15:51;;;;;;;17.97;3.57;;;6.00;99.90;;;;;;5074953;28;20965;-50
2023/02/02 05:18:17;;;;;;;13.20;3.40;;;6.50;99.90;;;;;;5074244;28;20966;-49
2023/02/02 05:20:44;;;;;;;12.13;2.63;;;6.90;99.90;;;;;;5074696;28;20818;-49
2023/02/02 05:23:11;;;;;;;10.10;2.53;;;6.40;99.90;;;;;;5056767;28;20519;-49
2023/02/02 05:25:37;;;;;;;12.33;2.90;;;6.40;99.90;;;;;;5074510;28;20454;-50
2023/02/02 05:28:05;;;;;;;11.13;3.10;;;6.80;99.90;;;;;;5074210;28;20847;-50
2023/02/02 05:30:31;;;;;;;9.53;2.43;;;6.70;99.90;;;;;;5074420;28;20419;-49
2023/02/02 05:32:59;;;;;;;8.33;2.30;;;6.60;99.90;;;;;;5074299;28;20410;-49
2023/02/02 05:35:26;;;;;;;11.73;2.67;;;6.50;99.90;;;;;;5074542;28;20859;-48
2023/02/02 05:37:52;;;;;;;11.50;2.87;;;6.60;99.90;;;;;;5074231;28;20474;-48
2023/02/02 05:40:19;;;;;;;11.67;2.27;;;6.50;99.90;;;;;;5074013;28;20429;-49
2023/02/02 05:42:47;;;;;;;11.53;2.63;;;6.60;99.90;;;;;;5074240;28;20438;-49
2023/02/02 05:45:14;;;;;;;11.53;2.33;;;6.20;99.90;;;;;;5074554;28;21003;-48
2023/02/02 05:47:41;;;;;;;10.60;3.50;;;6.30;99.90;;;;;;5074372;28;20410;-48
2023/02/02 05:50:10;;;;;;;8.80;2.50;;;6.70;99.90;;;;;;5073779;28;20436;-49
2023/02/02 05:52:39;;;;;;;9.87;2.40;;;6.60;99.90;;;;;;5073976;28;20435;-50
2023/02/02 05:55:06;;;;;;;6.53;2.20;;;6.80;99.90;;;;;;5073969;28;20452;-48
2023/02/02 05:57:33;;;;;;;13.20;2.97;;;6.70;99.90;;;;;;5074464;28;20460;-49
2023/02/02 05:59:59;;;;;;;11.43;2.53;;;6.50;99.90;;;;;;5073010;28;20441;-49
2023/02/02 06:02:26;;;;;;;9.23;3.03;;;6.60;99.90;;;;;;5073894;28;20964;-49
2023/02/02 06:04:53;;;;;;;13.13;2.40;;;6.70;99.90;;;;;;5073871;28;20425;-49
2023/02/02 06:07:21;;;;;;;17.97;4.20;;;6.60;99.90;;;;;;5073811;28;20442;-49
2023/02/02 06:09:47;;;;;;;10.63;3.20;;;6.70;99.90;;;;;;5072304;28;20439;-49
2023/02/02 06:12:14;;;;;;;12.70;3.60;;;6.60;99.90;;;;;;5073773;28;20463;-49
2023/02/02 06:14:41;;;;;;;11.67;2.97;;;6.50;99.90;;;;;;5073623;28;20852;-48
2023/02/02 06:17:07;;;;;;;11.27;2.67;;;6.60;99.90;;;;;;5055608;28;20478;-48
2023/02/02 06:19:34;;;;;;;9.67;2.73;;;6.80;99.90;;;;;;5073282;28;20412;-49
2023/02/02 06:22:01;;;;;;;14.10;3.20;;;6.50;99.90;;;;;;5073374;28;20414;-48
2023/02/02 06:24:29;;;;;;;13.60;3.37;;;6.50;99.90;;;;;;5073344;28;20518;-48
2023/02/02 06:26:55;;;;;;;11.00;2.77;;;6.40;99.90;;;;;;5073528;28;20426;-49
2023/02/02 06:29:22;;;;;;;10.67;2.67;;;6.50;99.90;;;;;;5073077;28;20406;-49
2023/02/02 06:31:48;;;;;;;11.97;2.50;;;6.40;99.90;;;;;;5073563;28;20451;-48
2023/02/02 06:34:15;;;;;;;13.60;2.63;;;6.60;99.90;;;;;;5073310;28;20463;-49
2023/02/02 06:36:42;;;;;;;15.73;3.80;;;6.40;99.90;;;;;;5073209;28;20498;-49
2023/02/02 06:39:09;;;;;;;13.97;3.30;;;6.70;99.90;;;;;;5072884;28;20965;-48
2023/02/02 06:41:37;;;;;;;13.83;3.00;;;6.50;99.90;;;;;;5073065;28;20785;-48
2023/02/02 06:44:04;;;;;;;13.00;3.47;;;6.50;99.90;;;;;;5072938;28;20476;-48
2023/02/02 06:46:30;;;;;;;9.10;2.93;;;6.10;99.90;;;;;;5072908;28;20410;-49
2023/02/02 06:48:57;;;;;;;11.03;3.33;;;6.20;99.90;;;;;;5072470;28;20871;-49
2023/02/02 06:51:23;;;;;;;10.13;3.10;;;6.50;99.90;;;;;;5072818;28;20487;-49
2023/02/02 06:53:50;;;;;;;14.70;3.80;;;6.40;99.90;;;;;;5072912;28;20489;-49
2023/02/02 06:56:17;;;;;;;12.30;4.03;;;6.30;99.90;;;;;;5072911;28;20414;-49
2023/02/02 06:58:45;;;;;;;10.37;3.53;;;6.50;99.90;;;;;;5072582;28;20475;-48
2023/02/02 07:01:13;;;;;;;15.67;3.90;;;6.30;99.90;;;;;;5072015;28;20411;-48
2023/02/02 07:03:40;;;;;;;8.20;2.90;;;6.50;99.90;;;;;;5072521;28;20519;-48
2023/02/02 07:06:11;;;;;;;9.90;2.40;;;6.60;99.90;;;;;;5072396;28;20463;-49
2023/02/02 07:08:38;;;;;;;11.17;3.40;;;6.60;99.90;;;;;;5071905;28;20410;-49
2023/02/02 07:11:05;;;;;;;10.40;4.23;;;6.30;99.90;;;;;;5072527;28;20444;-49
2023/02/02 07:13:31;;;;;;;8.97;2.30;;;6.40;99.90;;;;;;5072656;28;20417;-49
2023/02/02 07:15:59;;;;;;;11.33;2.57;;;6.40;99.90;;;;;;5072051;28;20803;-48
2023/02/02 07:18:26;;;;;;;16.00;4.03;;;6.00;99.90;;;;;;5072350;28;20461;-50
2023/02/02 07:20:52;;;;;;;8.80;2.50;;;6.50;99.90;;;;;;5072075;28;20435;-48
2023/02/02 07:23:19;;;;;;;12.03;2.70;;;6.20;99.90;;;;;;5072282;28;20439;-49
2023/02/02 07:25:46;;;;;;;9.00;2.83;;;6.00;99.90;;;;;;5072180;28;21205;-49
2023/02/02 07:28:12;;;;;;;16.40;2.80;;;6.20;99.90;;;;;;5071539;28;20930;-49
2023/02/02 07:30:39;;;;;;;9.03;2.33;;;6.60;99.90;;;;;;5071893;28;20427;-49
2023/02/02 07:33:07;;;;;;;16.80;2.70;;;6.40;99.90;;;;;;5072323;28;20819;-50
2023/02/02 07:35:34;;;;;;;8.63;2.70;;;6.50;99.90;;;;;;5071961;28;20802;-49
2023/02/02 07:38:00;;;;;;;9.80;2.80;;;6.50;99.90;;;;;;5071709;28;21047;-49
2023/02/02 07:40:27;;;;;;;19.77;2.90;;;5.80;99.90;;;;;;5072036;28;20432;-49
2023/02/02 07:42:53;;;;;;;10.47;3.03;;;5.80;99.90;;;;;;5071860;28;20430;-49
2023/02/02 07:45:20;;;;;;;11.93;2.70;;;5.90;99.90;;;;;;5071931;28;20454;-49
2023/02/02 07:47:47;;;;;;;9.10;2.43;;;6.50;99.90;;;;;;5071496;28;20544;-49
2023/02/02 07:50:15;;;;;;;8.83;2.53;;;6.50;99.90;;;;;;5071500;28;20430;-49
2023/02/02 07:52:41;;;;;;;14.57;3.97;;;6.30;99.90;;;;;;5071778;28;20439;-48
2023/02/02 07:55:10;;;;;;;8.13;2.57;;;6.20;99.90;;;;;;5072069;28;20930;-48
2023/02/02 07:57:37;;;;;;;20.10;4.07;;;6.20;99.90;;;;;;5071642;28;20457;-49
2023/02/02 08:00:04;;;;;;;9.77;2.73;;;6.30;99.90;;;;;;5071823;28;20791;-50
2023/02/02 08:02:39;;;;;;;17.67;2.80;;;6.40;99.90;;;;;;5071962;28;20414;-48
2023/02/02 08:05:06;;;;;;;20.20;3.80;;;6.40;99.90;;;;;;5071313;28;20961;-49
2023/02/02 08:07:35;;;;;;;15.20;4.60;;;6.20;99.90;;;;;;5071635;28;20446;-50
2023/02/02 08:10:02;;;;;;;11.93;3.10;;;6.30;99.90;;;;;;5071231;28;20856;-48
2023/02/02 08:12:28;;;;;;;18.17;5.70;;;6.40;99.90;;;;;;5071813;28;20406;-49
2023/02/02 08:14:55;;;;;;;14.10;4.60;;;6.20;99.90;;;;;;5071569;28;20426;-49
2023/02/02 08:17:22;;;;;;;15.53;4.00;;;6.30;99.90;;;;;;5071719;28;20768;-49
2023/02/02 08:19:49;;;;;;;18.23;3.50;;;6.00;99.90;;;;;;5071253;28;20958;-48
2023/02/02 08:22:15;;;;;;;15.37;4.10;;;5.80;99.90;;;;;;5071515;28;20410;-49
2023/02/02 08:24:43;;;;;;;11.13;3.23;;;6.10;99.90;;;;;;5071275;28;20458;-49
2023/02/02 08:27:10;;;;;;;9.93;3.97;;;6.40;99.90;;;;;;5071308;28;20405;-49
2023/02/02 08:29:38;;;;;;;18.03;4.07;;;6.50;99.90;;;;;;5071056;28;20410;-49
2023/02/02 08:32:05;;;;;;;10.47;4.10;;;6.50;99.90;;;;;;5071387;28;20413;-50
2023/02/02 08:34:35;;;;;;;21.43;4.50;;;6.70;99.90;;;;;;5074385;28;20453;-50
2023/02/02 08:37:02;;;;;;;11.70;4.63;;;6.70;99.90;;;;;;5075499;28;20934;-50
2023/02/02 08:39:29;;;;;;;14.27;3.93;;;6.60;99.90;;;;;;5074784;28;20980;-50
2023/02/02 08:41:56;;;;;;;15.77;3.70;;;6.80;99.90;;;;;;5075157;28;20495;-48
2023/02/02 08:44:24;;;;;;;17.10;3.53;;;6.00;99.90;;;;;;5075055;28;20485;-50
2023/02/02 08:46:50;;;;;;;14.73;4.10;;;6.70;99.90;;;;;;5075110;28;20443;-49
2023/02/02 08:49:17;;;;;;;15.53;4.50;;;6.70;99.90;;;;;;5074801;28;20438;-49
2023/02/02 08:51:44;;;;;;;13.43;3.50;;;6.60;99.90;;;;;;5074987;28;20406;-50
2023/02/02 08:54:11;;;;;;;9.63;3.70;;;6.70;99.90;;;;;;5074624;28;20425;-50
2023/02/02 08:56:37;;;;;;;11.97;3.33;;;6.60;99.90;;;;;;5075030;28;20408;-49
2023/02/02 08:59:06;;;;;;;13.70;3.60;;;6.70;99.90;;;;;;5074827;28;20454;-49
2023/02/02 09:01:34;;;;;;;9.57;3.87;;;6.90;99.90;;;;;;5074780;28;20407;-50
2023/02/02 09:04:03;;;;;;;9.03;3.07;;;6.50;99.90;;;;;;5074709;28;20463;-49
2023/02/02 09:06:32;;;;;;;16.67;3.77;;;7.10;99.90;;;;;;5074658;28;20439;-50
2023/02/02 09:08:59;;;;;;;15.97;2.63;;;6.80;99.90;;;;;;5074440;28;20407;-49
2023/02/02 09:11:27;;;;;;;9.30;3.20;;;6.90;99.90;;;;;;5074820;28;20943;-49
2023/02/02 09:13:55;;;;;;;14.40;3.60;;;7.10;99.90;;;;;;5056394;28;20440;-49
2023/02/02 09:16:24;;;;;;;8.67;3.00;;;6.80;99.90;;;;;;5074356;28;20419;-49
2023/02/02 09:18:51;;;;;;;7.20;2.90;;;7.10;99.90;;;;;;5074151;28;20450;-49
2023/02/02 09:21:19;;;;;;;14.80;3.77;;;6.60;99.90;;;;;;5074570;28;20422;-49
2023/02/02 09:23:47;;;;;;;14.10;4.80;;;7.20;99.90;;;;;;5074558;28;20415;-49
2023/02/02 09:26:16;;;;;;;12.17;3.20;;;7.50;99.90;;;;;;5074632;28;20517;-49
2023/02/02 09:28:45;;;;;;;12.57;2.87;;;7.40;99.90;;;;;;5074134;28;20482;-49
2023/02/02 09:31:12;;;;;;;13.10;2.90;;;7.50;99.90;;;;;;5074393;28;20461;-49
2023/02/02 09:33:40;;;;;;;9.40;3.73;;;7.10;99.90;;;;;;5074241;28;20436;-49
2023/02/02 09:36:09;;;;;;;13.27;2.63;;;7.30;99.90;;;;;;5074046;28;20458;-49
2023/02/02 09:38:36;;;;;;;15.27;2.50;;;7.50;99.90;;;;;;5073868;28;20461;-50
2023/02/02 09:41:17;;;;;;;16.03;3.00;;;7.20;99.90;;;;;;5073966;28;20404;-49
2023/02/02 09:43:52;;;;;;;12.77;3.67;;;7.40;99.90;;;;;;5074032;28;20429;-49
2023/02/02 09:46:28;;;;;;;14.43;3.40;;;7.50;99.90;;;;;;5054530;28;20414;-49
2023/02/02 09:49:01;;;;;;;9.73;2.80;;;7.70;99.90;;;;;;5073727;28;20398;-50
2023/02/02 09:51:32;;;;;;;14.43;3.10;;;7.60;99.90;;;;;;5073982;28;20407;-50
2023/02/02 09:54:01;;;;;;;8.67;3.60;;;7.60;99.90;;;;;;5073793;28;20987;-49
2023/02/02 09:56:34;;;;;;;7.00;2.53;;;7.70;99.90;;;;;;5073956;28;20799;-49
2023/02/02 09:59:03;;;;;;;7.83;2.70;;;7.80;99.90;;;;;;5073588;28;20455;-49
2023/02/02 10:01:35;;;;;;;14.40;3.20;;;7.80;99.90;;;;;;5073839;28;20414;-49
2023/02/02 10:04:08;;;;;;;10.60;2.40;;;7.80;99.90;;;;;;5073643;28;20403;-49
2023/02/02 10:06:37;;;;;;;9.07;2.83;;;7.70;99.90;;;;;;5055693;28;20431;-49
2023/02/02 10:09:19;;;;;;;10.23;2.20;;;7.70;99.90;;;;;;5073340;28;20417;-49
2023/02/02 10:11:52;;;;;;;17.70;4.60;;;7.80;99.90;;;;;;5073614;28;20432;-50
2023/02/02 10:14:25;;;;;;;12.20;2.63;;;7.40;99.90;;;;;;5073361;28;20424;-49
2023/02/02 10:16:54;;;;;;;11.23;2.50;;;7.50;99.90;;;;;;5073556;28;20432;-49
2023/02/02 10:19:28;;;;;;;12.70;2.60;;;7.60;99.90;;;;;;5073111;28;20487;-49
2023/02/02 10:22:02;;;;;;;13.07;2.60;;;7.40;99.90;;;;;;5073068;28;20528;-49
2023/02/02 10:24:31;;;;;;;6.20;2.80;;;7.50;99.90;;;;;;5073502;28;20507;-49
2023/02/02 10:27:03;;;;;;;9.00;2.40;;;7.60;99.90;;;;;;5073044;28;20414;-50
2023/02/02 10:29:38;;;;;;;11.80;2.80;;;7.50;99.90;;;;;;5071462;28;20815;-49
2023/02/02 10:32:14;;;;;;;11.52;2.50;;;7.40;99.90;;;;;;5072517;28;20440;-49
2023/02/02 10:34:43;;;;;;;6.87;1.97;;;7.80;99.90;;;;;;5072917;28;20229;-49
2023/02/02 10:37:26;;;;;;;9.37;2.87;;;7.70;99.90;;;;;;5073146;28;20447;-50
2023/02/02 10:40:03;;;;;;;10.43;2.43;;;7.20;99.90;;;;;;5072491;28;20472;-50
2023/02/02 10:42:38;;;;;;;5.63;2.00;;;7.80;99.90;;;;;;5072872;28;20401;-50
2023/02/02 10:45:14;;;;;;;12.90;2.93;;;7.50;99.90;;;;;;5073168;28;20970;-48
2023/02/02 10:47:41;;;;;;;8.57;2.50;;;7.90;99.90;;;;;;5072682;28;20916;-49
2023/02/02 10:50:16;;;;;;;9.17;2.30;;;8.40;99.90;;;;;;5072618;28;20436;-49
2023/02/02 10:52:47;;;;;;;5.40;1.90;;;8.00;99.90;;;;;;5072983;28;20406;-49
2023/02/02 10:55:21;;;;;;;7.63;2.47;;;8.10;99.90;;;;;;5072571;28;20506;-50
2023/02/02 10:57:58;;;;;;;8.43;2.83;;;8.20;99.90;;;;;;5072302;28;20529;-49
2023/02/02 11:00:30;;;;;;;11.90;2.40;;;8.30;99.90;;;;;;5072365;28;20982;-49
2023/02/02 11:02:57;;;;;;;9.50;2.95;;;8.10;99.90;;;;;;5072194;28;20907;-51
2023/02/02 11:08:15;;;;;;;5.17;1.87;;;8.10;99.90;;;;;;5054296;28;20448;-50
2023/02/02 11:10:44;;;;;;;8.85;2.17;;;7.80;99.90;;;;;;5072342;28;20739;-49
2023/02/02 11:13:16;;;;;;;11.17;2.40;;;8.20;99.90;;;;;;5073109;28;20196;-50
2023/02/02 11:15:43;;;;;;;8.93;2.70;;;8.20;99.90;;;;;;5072481;28;20456;-49
2023/02/02 11:18:15;;;;;;;5.93;2.80;;;8.10;99.90;;;;;;5053881;28;20440;-50
2023/02/02 11:20:45;;;;;;;6.60;2.10;;;8.30;99.90;;;;;;5054383;28;20519;-50
2023/02/02 11:23:19;;;;;;;10.93;2.67;;;8.20;99.90;;;;;;5072462;28;20442;-50
2023/02/02 11:25:45;;;;;;;10.00;2.57;;;8.00;99.90;;;;;;5072056;28;20436;-49
2023/02/02 11:28:18;;;;;;;5.23;1.90;;;8.20;99.90;;;;;;5071872;28;20464;-49
2023/02/02 11:30:49;;;;;;;15.70;2.80;;;8.40;99.90;;;;;;5072143;28;20430;-49
2023/02/02 11:33:27;;;;;;;9.33;2.40;;;8.50;99.90;;;;;;5053933;28;20942;-49
2023/02/02 11:35:57;;;;;;;9.80;2.40;;;8.50;99.90;;;;;;5071435;28;20984;-49
2023/02/02 11:38:24;;;;;;;4.93;1.70;;;8.60;99.90;;;;;;5071690;28;20752;-51
2023/02/02 11:40:57;;;;;;;6.13;2.20;;;8.20;99.90;;;;;;5053816;28;20469;-51
2023/02/02 11:43:28;;;;;;;8.60;2.40;;;8.10;99.90;;;;;;5071663;28;20453;-50
2023/02/02 11:45:59;;;;;;;10.47;2.83;;;8.40;99.90;;;;;;5071932;28;20440;-49
2023/02/02 11:48:30;;;;;;;8.33;2.00;;;8.50;99.90;;;;;;5071672;28;20752;-49
2023/02/02 11:51:00;;;;;;;6.73;2.47;;;8.70;99.90;;;;;;5071332;28;20976;-50
2023/02/02 11:53:30;;;;;;;10.27;2.07;;;8.50;99.90;;;;;;5071835;28;20436;-49
2023/02/02 11:55:59;;;;;;;5.30;1.83;;;8.50;99.90;;;;;;5071782;28;20449;-48
2023/02/02 11:58:28;;;;;;;8.53;2.40;;;8.30;99.90;;;;;;5071369;28;20871;-49
2023/02/02 12:01:00;;;;;;;8.30;2.53;;;8.60;99.90;;;;;;5071808;28;20456;-50
2023/02/02 12:03:31;;;;;;;7.27;2.27;;;8.50;99.90;;;;;;5071775;28;20449;-49
2023/02/02 12:06:00;;;;;;;13.17;2.10;;;8.80;99.90;;;;;;5071679;28;20453;-48
2023/02/02 12:08:28;;;;;;;5.70;2.03;;;8.50;99.90;;;;;;5070472;28;20510;-49
2023/02/02 12:10:59;;;;;;;9.50;1.90;;;8.10;99.90;;;;;;5071510;28;20425;-49
2023/02/02 12:13:43;;;;;;;5.53;2.23;;;8.50;99.90;;;;;;5071306;28;20454;-48
2023/02/02 12:16:22;;;;;;;8.43;2.27;;;8.60;99.90;;;;;;5071412;28;20432;-51
2023/02/02 12:19:00;;;;;;;15.83;2.63;;;8.50;99.90;;;;;;5071296;28;20491;-48
2023/02/02 12:21:39;;;;;;;10.43;2.37;;;8.50;99.90;;;;;;5071524;28;20410;-49
2023/02/02 12:24:24;;;;;;;3.20;1.37;;;8.30;99.90;;;;;;5071565;28;20527;-48
2023/02/02 12:27:02;;;;;;;11.50;3.20;;;8.30;99.90;;;;;;5071526;28;20451;-47
2023/02/02 12:29:39;;;;;;;11.77;2.30;;;8.20;99.90;;;;;;5071277;28;20444;-49
2023/02/02 12:32:18;;;;;;;7.10;2.17;;;8.20;99.90;;;;;;5071418;28;20396;-48
2023/02/02 12:34:58;;;;;;;11.83;2.30;;;7.70;99.90;;;;;;5070914;28;20574;-49
2023/02/02 12:37:40;;;;;;;7.50;2.25;;;8.60;99.90;;;;;;5062554;28;20436;-49
2023/02/02 12:40:26;;;;;;;13.57;3.90;;;8.60;99.90;;;;;;5091189;28;20602;-49
2023/02/02 12:43:04;;;;;;;11.87;2.70;;;8.20;99.90;;;;;;5091920;28;20448;-49
2023/02/02 12:45:46;;;;;;;6.10;2.10;;;8.40;99.90;;;;;;5091613;28;20443;-47
2023/02/02 12:48:36;;;;;;;6.00;1.90;;;8.00;99.90;;;;;;5091778;28;20414;-49
2023/02/02 12:51:17;;;;;;;10.57;2.00;;;7.80;99.90;;;;;;5091926;28;20847;-49
2023/02/02 12:54:05;;;;;;;7.77;2.00;;;7.60;99.90;;;;;;5091552;28;20407;-48
2023/02/02 12:56:38;;;;;;;6.33;2.03;;;7.60;99.90;;;;;;5091495;28;20459;-49
2023/02/02 12:59:12;;;;;;;6.93;2.10;;;7.70;99.90;;;;;;5091461;28;20552;-49
2023/02/02 13:01:52;;;;;;;8.10;2.37;;;7.30;99.90;;;;;;5091337;28;20432;-48
2023/02/02 13:04:33;;;;;;;5.57;2.93;;;7.70;99.90;;;;;;5091442;28;20935;-49
2023/02/02 13:07:20;;;;;;;8.00;2.50;;;7.70;99.90;;;;;;5091107;28;20973;-49
2023/02/02 13:10:00;;;;;;;11.03;2.90;;;7.40;99.90;;;;;;5091184;28;20421;-49
2023/02/02 13:12:29;;;;;;;16.47;3.23;;;7.40;99.90;;;;;;5091410;28;20414;-49
2023/02/02 13:15:01;;;;;;;7.63;2.03;;;7.50;99.90;;;;;;5091521;28;20962;-48
2023/02/02 13:17:33;;;;;;;8.83;1.97;;;7.60;99.90;;;;;;5073361;28;20997;-49
2023/02/02 13:20:05;;;;;;;6.33;1.63;;;7.60;99.90;;;;;;5092589;28;20446;-48